Check out our new PWSWeather beta!
PWSweather.com
Personal Weather Stations
Station Observations
ROSEGARDEN
Rose Garden, Brentwood, CA 94513

Rose GardenBrentwood, CA 94513

Lat: 37.967503, Lon: -121.721004

Elevation: 89

Station Type: Davis Vantage Vue

High Low Average
Temperature 72.0°F22.2°C 39.1°F3.9°C 54.4°F12.4°C
Dew Point 39.0°F3.9°C 22.0°F-5.6°C 29.5°F-1.4°C
Winds 3.0 mph 4.8 kmh Calm Calm 1.0 mph SSW1.6 kmh SSW
Wind Gusts 7.0 mph11.3 kmh -- 2.0 mph3.2 kmh
Humidity 74% 18% 42%
Pressure 30.16 in1021.3 mb 30.06 in1017.9 mb -
Precipitation 0.00 in0.0 mm - -
Hour Temp Dew Point Humidity Winds Wind Gusts Pressure Precip Precip Rate Daily Precip Total
12:00 AM 47.2°F8.4°C 22.0°F-5.6°C 37% 1.1 mph SW1.8 kmh SW 2.0 mph3.2 kmh 30.12 in1020.0 mb 0.00 in0.0 mm 0.00 in0.0 mm 0.00 in0.0 mm
12:10 AM 47.2°F8.4°C 23.0°F-5.0°C 38% 1.0 mph WSW1.6 kmh WSW 1.0 mph1.6 kmh 30.12 in1020.0 mb 0.00 in0.0 mm 0.00 in0.0 mm 0.00 in0.0 mm
12:20 AM 47.2°F8.4°C 22.0°F-5.6°C 37% 0.6 mph SW1.0 kmh SW 1.0 mph1.6 kmh 30.12 in1020.0 mb 0.00 in0.0 mm 0.00 in0.0 mm 0.00 in0.0 mm
12:30 AM 46.9°F8.3°C 22.0°F-5.6°C 37% 0.9 mph SW1.4 kmh SW 1.0 mph1.6 kmh 30.12 in1020.0 mb 0.00 in0.0 mm 0.00 in0.0 mm 0.00 in0.0 mm
12:40 AM 46.6°F8.1°C 22.0°F-5.6°C 38% 0.9 mph SW1.4 kmh SW 2.0 mph3.2 kmh 30.12 in1020.0 mb 0.00 in0.0 mm 0.00 in0.0 mm 0.00 in0.0 mm
12:50 AM 46.5°F8.1°C 23.0°F-5.0°C 39% 1.1 mph SW1.8 kmh SW 2.0 mph3.2 kmh 30.12 in1020.0 mb 0.00 in0.0 mm 0.00 in0.0 mm 0.00 in0.0 mm
01:00 AM 46.4°F8.0°C 23.0°F-5.0°C 40% 1.0 mph SW1.6 kmh SW 2.0 mph3.2 kmh 30.12 in1020.0 mb 0.00 in0.0 mm 0.00 in0.0 mm 0.00 in0.0 mm
01:10 AM 46.5°F8.1°C 22.0°F-5.6°C 38% 0.8 mph WSW1.3 kmh WSW 2.0 mph3.2 kmh 30.12 in1020.0 mb 0.00 in0.0 mm 0.00 in0.0 mm 0.00 in0.0 mm
01:20 AM 46.0°F7.8°C 23.0°F-5.0°C 41% Calm Calm -- 30.12 in1020.0 mb 0.00 in0.0 mm 0.00 in0.0 mm 0.00 in0.0 mm
01:30 AM 45.8°F7.7°C 22.0°F-5.6°C 39% Calm Calm -- 30.12 in1020.0 mb 0.00 in0.0 mm 0.00 in0.0 mm 0.00 in0.0 mm
01:40 AM 45.1°F7.3°C 24.0°F-4.4°C 44% Calm Calm 1.0 mph1.6 kmh 30.12 in1020.0 mb 0.00 in0.0 mm 0.00 in0.0 mm 0.00 in0.0 mm
01:50 AM 44.7°F7.1°C 24.0°F-4.4°C 44% Calm Calm -- 30.12 in1020.0 mb 0.00 in0.0 mm 0.00 in0.0 mm 0.00 in0.0 mm
02:00 AM 43.8°F6.6°C 24.0°F-4.4°C 46% Calm Calm -- 30.12 in1020.0 mb 0.00 in0.0 mm 0.00 in0.0 mm 0.00 in0.0 mm
02:10 AM 43.3°F6.3°C 26.0°F-3.3°C 50% Calm Calm -- 30.12 in1020.0 mb 0.00 in0.0 mm 0.00 in0.0 mm 0.00 in0.0 mm
02:20 AM 42.2°F5.7°C 24.0°F-4.4°C 49% Calm Calm -- 30.12 in1020.0 mb 0.00 in0.0 mm 0.00 in0.0 mm 0.00 in0.0 mm
02:30 AM 41.7°F5.4°C 25.0°F-3.9°C 52% Calm Calm -- 30.12 in1020.0 mb 0.00 in0.0 mm 0.00 in0.0 mm 0.00 in0.0 mm
02:40 AM 41.6°F5.3°C 26.0°F-3.3°C 54% Calm Calm -- 30.12 in1020.0 mb 0.00 in0.0 mm 0.00 in0.0 mm 0.00 in0.0 mm
02:50 AM 41.3°F5.2°C 26.0°F-3.3°C 55% Calm Calm -- 30.11 in1019.6 mb 0.00 in0.0 mm 0.00 in0.0 mm 0.00 in0.0 mm
03:00 AM 41.4°F5.2°C 25.0°F-3.9°C 52% Calm Calm -- 30.11 in1019.6 mb 0.00 in0.0 mm 0.00 in0.0 mm 0.00 in0.0 mm
03:10 AM 42.3°F5.7°C 24.0°F-4.4°C 49% Calm Calm -- 30.11 in1019.6 mb 0.00 in0.0 mm 0.00 in0.0 mm 0.00 in0.0 mm
03:20 AM 42.7°F5.9°C 25.0°F-3.9°C 49% Calm Calm -- 30.11 in1019.6 mb 0.00 in0.0 mm 0.00 in0.0 mm 0.00 in0.0 mm
03:30 AM 42.5°F5.8°C 24.0°F-4.4°C 48% Calm Calm -- 30.11 in1019.6 mb 0.00 in0.0 mm 0.00 in0.0 mm 0.00 in0.0 mm
03:40 AM 42.6°F5.9°C 24.0°F-4.4°C 49% Calm Calm -- 30.11 in1019.6 mb 0.00 in0.0 mm 0.00 in0.0 mm 0.00 in0.0 mm
03:50 AM 42.2°F5.7°C 25.0°F-3.9°C 51% Calm Calm -- 30.11 in1019.6 mb 0.00 in0.0 mm 0.00 in0.0 mm 0.00 in0.0 mm
04:00 AM 41.6°F5.3°C 25.0°F-3.9°C 53% Calm Calm -- 30.11 in1019.6 mb 0.00 in0.0 mm 0.00 in0.0 mm 0.00 in0.0 mm
04:10 AM 41.2°F5.1°C 26.0°F-3.3°C 55% Calm Calm -- 30.11 in1019.6 mb 0.00 in0.0 mm 0.00 in0.0 mm 0.00 in0.0 mm
04:20 AM 40.9°F4.9°C 27.0°F-2.8°C 57% Calm Calm -- 30.11 in1019.6 mb 0.00 in0.0 mm 0.00 in0.0 mm 0.00 in0.0 mm
04:30 AM 40.6°F4.8°C 27.0°F-2.8°C 58% Calm Calm -- 30.12 in1020.0 mb 0.00 in0.0 mm 0.00 in0.0 mm 0.00 in0.0 mm
04:40 AM 40.4°F4.7°C 26.0°F-3.3°C 56% Calm Calm -- 30.12 in1020.0 mb 0.00 in0.0 mm 0.00 in0.0 mm 0.00 in0.0 mm
04:50 AM 40.7°F4.8°C 25.0°F-3.9°C 55% 0.3 mph WNW0.5 kmh WNW 2.0 mph3.2 kmh 30.12 in1020.0 mb 0.00 in0.0 mm 0.00 in0.0 mm 0.00 in0.0 mm
05:00 AM 40.1°F4.5°C 25.0°F-3.9°C 56% Calm Calm -- 30.12 in1020.0 mb 0.00 in0.0 mm 0.00 in0.0 mm 0.00 in0.0 mm
05:10 AM 40.1°F4.5°C 26.0°F-3.3°C 57% Calm Calm -- 30.12 in1020.0 mb 0.00 in0.0 mm 0.00 in0.0 mm 0.00 in0.0 mm
05:20 AM 40.4°F4.7°C 26.0°F-3.3°C 56% Calm Calm -- 30.11 in1019.6 mb 0.00 in0.0 mm 0.00 in0.0 mm 0.00 in0.0 mm
05:30 AM 41.0°F5.0°C 28.0°F-2.2°C 60% Calm Calm -- 30.12 in1020.0 mb 0.00 in0.0 mm 0.00 in0.0 mm 0.00 in0.0 mm
05:40 AM 40.8°F4.9°C 28.0°F-2.2°C 61% Calm Calm -- 30.12 in1020.0 mb 0.00 in0.0 mm 0.00 in0.0 mm 0.00 in0.0 mm
05:50 AM 40.4°F4.7°C 28.0°F-2.2°C 62% Calm Calm -- 30.12 in1020.0 mb 0.00 in0.0 mm 0.00 in0.0 mm 0.00 in0.0 mm
06:00 AM 40.0°F4.4°C 28.0°F-2.2°C 63% Calm Calm -- 30.12 in1020.0 mb 0.00 in0.0 mm 0.00 in0.0 mm 0.00 in0.0 mm
06:10 AM 40.5°F4.7°C 31.0°F-0.6°C 69% Calm Calm -- 30.12 in1020.0 mb 0.00 in0.0 mm 0.00 in0.0 mm 0.00 in0.0 mm
06:20 AM 41.1°F5.1°C 32.0°F0.0°C 71% Calm Calm -- 30.13 in1020.3 mb 0.00 in0.0 mm 0.00 in0.0 mm 0.00 in0.0 mm
06:30 AM 39.8°F4.3°C 30.0°F-1.1°C 69% Calm Calm -- 30.13 in1020.3 mb 0.00 in0.0 mm 0.00 in0.0 mm 0.00 in0.0 mm
06:40 AM 39.1°F3.9°C 30.0°F-1.1°C 71% Calm Calm -- 30.13 in1020.3 mb 0.00 in0.0 mm 0.00 in0.0 mm 0.00 in0.0 mm
06:50 AM 39.4°F4.1°C 32.0°F0.0°C 74% Calm Calm -- 30.13 in1020.3 mb 0.00 in0.0 mm 0.00 in0.0 mm 0.00 in0.0 mm
07:00 AM 39.2°F4.0°C 32.0°F0.0°C 74% Calm Calm -- 30.14 in1020.7 mb 0.00 in0.0 mm 0.00 in0.0 mm 0.00 in0.0 mm
07:10 AM 40.7°F4.8°C 33.0°F0.6°C 74% Calm Calm -- 30.14 in1020.7 mb 0.00 in0.0 mm 0.00 in0.0 mm 0.00 in0.0 mm
07:20 AM 42.2°F5.7°C 33.0°F0.6°C 71% Calm Calm -- 30.15 in1021.0 mb 0.00 in0.0 mm 0.00 in0.0 mm 0.00 in0.0 mm
07:30 AM 42.5°F5.8°C 34.0°F1.1°C 71% Calm Calm -- 30.15 in1021.0 mb 0.00 in0.0 mm 0.00 in0.0 mm 0.00 in0.0 mm
07:40 AM 43.6°F6.4°C 34.0°F1.1°C 70% Calm Calm -- 30.15 in1021.0 mb 0.00 in0.0 mm 0.00 in0.0 mm 0.00 in0.0 mm
07:50 AM 44.9°F7.2°C 34.0°F1.1°C 67% Calm Calm -- 30.15 in1021.0 mb 0.00 in0.0 mm 0.00 in0.0 mm 0.00 in0.0 mm
08:00 AM 46.0°F7.8°C 34.0°F1.1°C 64% Calm Calm -- 30.15 in1021.0 mb 0.00 in0.0 mm 0.00 in0.0 mm 0.00 in0.0 mm
08:10 AM 47.1°F8.4°C 34.0°F1.1°C 60% 0.2 mph N0.3 kmh N 2.0 mph3.2 kmh 30.15 in1021.0 mb 0.00 in0.0 mm 0.00 in0.0 mm 0.00 in0.0 mm
08:20 AM 47.8°F8.8°C 34.0°F1.1°C 59% 0.4 mph N0.6 kmh N 3.0 mph4.8 kmh 30.16 in1021.3 mb 0.00 in0.0 mm 0.00 in0.0 mm 0.00 in0.0 mm
08:30 AM 49.0°F9.4°C 34.0°F1.1°C 57% 0.2 mph NW0.3 kmh NW 1.0 mph1.6 kmh 30.16 in1021.3 mb 0.00 in0.0 mm 0.00 in0.0 mm 0.00 in0.0 mm
08:40 AM 49.5°F9.7°C 34.0°F1.1°C 56% 1.4 mph NNW2.3 kmh NNW 3.0 mph4.8 kmh 30.16 in1021.3 mb 0.00 in0.0 mm 0.00 in0.0 mm 0.00 in0.0 mm
08:50 AM 50.1°F10.1°C 36.0°F2.2°C 58% 1.6 mph N2.6 kmh N 4.0 mph6.4 kmh 30.16 in1021.3 mb 0.00 in0.0 mm 0.00 in0.0 mm 0.00 in0.0 mm
09:00 AM 50.9°F10.5°C 38.0°F3.3°C 61% 1.2 mph N1.9 kmh N 3.0 mph4.8 kmh 30.16 in1021.3 mb 0.00 in0.0 mm 0.00 in0.0 mm 0.00 in0.0 mm
09:10 AM 52.2°F11.2°C 39.0°F3.9°C 61% 1.4 mph WNW2.3 kmh WNW 3.0 mph4.8 kmh 30.16 in1021.3 mb 0.00 in0.0 mm 0.00 in0.0 mm 0.00 in0.0 mm
09:20 AM 53.1°F11.7°C 38.0°F3.3°C 58% 1.5 mph W2.4 kmh W 5.0 mph8.0 kmh 30.16 in1021.3 mb 0.00 in0.0 mm 0.00 in0.0 mm 0.00 in0.0 mm
09:30 AM 53.7°F12.1°C 38.0°F3.3°C 55% 1.4 mph N2.3 kmh N 5.0 mph8.0 kmh 30.16 in1021.3 mb 0.00 in0.0 mm 0.00 in0.0 mm 0.00 in0.0 mm
09:40 AM 54.5°F12.5°C 38.0°F3.3°C 54% 1.9 mph N3.1 kmh N 4.0 mph6.4 kmh 30.16 in1021.3 mb 0.00 in0.0 mm 0.00 in0.0 mm 0.00 in0.0 mm
09:50 AM 55.2°F12.9°C 37.0°F2.8°C 51% 1.7 mph NW2.7 kmh NW 3.0 mph4.8 kmh 30.16 in1021.3 mb 0.00 in0.0 mm 0.00 in0.0 mm 0.00 in0.0 mm
10:00 AM 56.2°F13.4°C 37.0°F2.8°C 49% 0.9 mph NW1.4 kmh NW 4.0 mph6.4 kmh 30.16 in1021.3 mb 0.00 in0.0 mm 0.00 in0.0 mm 0.00 in0.0 mm
10:10 AM 57.6°F14.2°C 37.0°F2.8°C 47% 0.7 mph NNW1.1 kmh NNW 2.0 mph3.2 kmh 30.16 in1021.3 mb 0.00 in0.0 mm 0.00 in0.0 mm 0.00 in0.0 mm
10:20 AM 58.3°F14.6°C 36.0°F2.2°C 44% 1.0 mph N1.6 kmh N 4.0 mph6.4 kmh 30.16 in1021.3 mb 0.00 in0.0 mm 0.00 in0.0 mm 0.00 in0.0 mm
10:30 AM 59.4°F15.2°C 32.0°F0.0°C 36% 1.2 mph ENE1.9 kmh ENE 3.0 mph4.8 kmh 30.16 in1021.3 mb 0.00 in0.0 mm 0.00 in0.0 mm 0.00 in0.0 mm
10:40 AM 60.9°F16.1°C 33.0°F0.6°C 35% 0.5 mph NE0.8 kmh NE 2.0 mph3.2 kmh 30.15 in1021.0 mb 0.00 in0.0 mm 0.00 in0.0 mm 0.00 in0.0 mm
10:50 AM 60.4°F15.8°C 32.0°F0.0°C 35% 1.2 mph N1.9 kmh N 3.0 mph4.8 kmh 30.15 in1021.0 mb 0.00 in0.0 mm 0.00 in0.0 mm 0.00 in0.0 mm
11:00 AM 62.2°F16.8°C 33.0°F0.6°C 33% 0.8 mph NE1.3 kmh NE 3.0 mph4.8 kmh 30.15 in1021.0 mb 0.00 in0.0 mm 0.00 in0.0 mm 0.00 in0.0 mm
11:10 AM 62.2°F16.8°C 33.0°F0.6°C 34% 0.9 mph S1.4 kmh S 3.0 mph4.8 kmh 30.14 in1020.7 mb 0.00 in0.0 mm 0.00 in0.0 mm 0.00 in0.0 mm
11:20 AM 63.4°F17.4°C 33.0°F0.6°C 32% 1.2 mph NNE1.9 kmh NNE 4.0 mph6.4 kmh 30.14 in1020.7 mb 0.00 in0.0 mm 0.00 in0.0 mm 0.00 in0.0 mm
11:30 AM 63.7°F17.6°C 31.0°F-0.6°C 29% 1.2 mph NNE1.9 kmh NNE 3.0 mph4.8 kmh 30.14 in1020.7 mb 0.00 in0.0 mm 0.00 in0.0 mm 0.00 in0.0 mm
11:40 AM 64.5°F18.1°C 32.0°F0.0°C 30% 1.2 mph NE1.9 kmh NE 4.0 mph6.4 kmh 30.13 in1020.3 mb 0.00 in0.0 mm 0.00 in0.0 mm 0.00 in0.0 mm
11:50 AM 65.0°F18.3°C 32.0°F0.0°C 29% 1.3 mph N2.1 kmh N 3.0 mph4.8 kmh 30.13 in1020.3 mb 0.00 in0.0 mm 0.00 in0.0 mm 0.00 in0.0 mm
12:00 PM 65.7°F18.7°C 32.0°F0.0°C 28% 1.4 mph E2.3 kmh E 5.0 mph8.0 kmh 30.12 in1020.0 mb 0.00 in0.0 mm 0.00 in0.0 mm 0.00 in0.0 mm
12:10 PM 66.3°F19.1°C 32.0°F0.0°C 28% 1.4 mph N2.3 kmh N 4.0 mph6.4 kmh 30.12 in1020.0 mb 0.00 in0.0 mm 0.00 in0.0 mm 0.00 in0.0 mm
12:20 PM 67.8°F19.9°C 32.0°F0.0°C 27% 1.4 mph NNE2.3 kmh NNE 5.0 mph8.0 kmh 30.11 in1019.6 mb 0.00 in0.0 mm 0.00 in0.0 mm 0.00 in0.0 mm
12:30 PM 67.7°F19.8°C 33.0°F0.6°C 28% 0.9 mph ENE1.4 kmh ENE 3.0 mph4.8 kmh 30.11 in1019.6 mb 0.00 in0.0 mm 0.00 in0.0 mm 0.00 in0.0 mm
12:40 PM 67.6°F19.8°C 33.0°F0.6°C 28% 1.5 mph NE2.4 kmh NE 5.0 mph8.0 kmh 30.11 in1019.6 mb 0.00 in0.0 mm 0.00 in0.0 mm 0.00 in0.0 mm
12:50 PM 68.5°F20.3°C 35.0°F1.7°C 29% 1.3 mph N2.1 kmh N 4.0 mph6.4 kmh 30.10 in1019.3 mb 0.00 in0.0 mm 0.00 in0.0 mm 0.00 in0.0 mm
01:00 PM 69.0°F20.6°C 34.0°F1.1°C 28% 1.7 mph NE2.7 kmh NE 4.0 mph6.4 kmh 30.10 in1019.3 mb 0.00 in0.0 mm 0.00 in0.0 mm 0.00 in0.0 mm
01:10 PM 69.7°F20.9°C 34.0°F1.1°C 27% 1.4 mph NNE2.3 kmh NNE 7.0 mph11.3 kmh 30.10 in1019.3 mb 0.00 in0.0 mm 0.00 in0.0 mm 0.00 in0.0 mm
01:20 PM 69.2°F20.7°C 33.0°F0.6°C 26% 2.4 mph N3.9 kmh N 7.0 mph11.3 kmh 30.10 in1019.3 mb 0.00 in0.0 mm 0.00 in0.0 mm 0.00 in0.0 mm
01:30 PM 69.1°F20.6°C 32.0°F0.0°C 25% 3.0 mph N4.8 kmh N 7.0 mph11.3 kmh 30.09 in1019.0 mb 0.00 in0.0 mm 0.00 in0.0 mm 0.00 in0.0 mm
01:40 PM 69.2°F20.7°C 31.0°F-0.6°C 24% 3.0 mph ESE4.8 kmh ESE 6.0 mph9.7 kmh 30.09 in1019.0 mb 0.00 in0.0 mm 0.00 in0.0 mm 0.00 in0.0 mm
01:50 PM 69.8°F21.0°C 30.0°F-1.1°C 23% 1.9 mph E3.1 kmh E 7.0 mph11.3 kmh 30.09 in1019.0 mb 0.00 in0.0 mm 0.00 in0.0 mm 0.00 in0.0 mm
02:00 PM 70.1°F21.2°C 29.0°F-1.7°C 22% 1.5 mph NE2.4 kmh NE 4.0 mph6.4 kmh 30.09 in1019.0 mb 0.00 in0.0 mm 0.00 in0.0 mm 0.00 in0.0 mm
02:10 PM 70.3°F21.3°C 28.0°F-2.2°C 21% 1.8 mph NNW2.9 kmh NNW 6.0 mph9.7 kmh 30.09 in1019.0 mb 0.00 in0.0 mm 0.00 in0.0 mm 0.00 in0.0 mm
02:20 PM 70.6°F21.4°C 30.0°F-1.1°C 22% 1.2 mph E1.9 kmh E 3.0 mph4.8 kmh 30.09 in1019.0 mb 0.00 in0.0 mm 0.00 in0.0 mm 0.00 in0.0 mm
02:30 PM 71.3°F21.8°C 29.0°F-1.7°C 21% 1.1 mph SE1.8 kmh SE 3.0 mph4.8 kmh 30.09 in1019.0 mb 0.00 in0.0 mm 0.00 in0.0 mm 0.00 in0.0 mm
02:40 PM 70.8°F21.6°C 26.0°F-3.3°C 19% 2.1 mph NNE3.4 kmh NNE 5.0 mph8.0 kmh 30.09 in1019.0 mb 0.00 in0.0 mm 0.00 in0.0 mm 0.00 in0.0 mm
02:50 PM 70.9°F21.6°C 25.0°F-3.9°C 18% 1.7 mph ENE2.7 kmh ENE 4.0 mph6.4 kmh 30.08 in1018.6 mb 0.00 in0.0 mm 0.00 in0.0 mm 0.00 in0.0 mm
03:00 PM 72.0°F22.2°C 26.0°F-3.3°C 18% 1.3 mph SE2.1 kmh SE 4.0 mph6.4 kmh 30.08 in1018.6 mb 0.00 in0.0 mm 0.00 in0.0 mm 0.00 in0.0 mm
03:10 PM 71.4°F21.9°C 26.0°F-3.3°C 18% 1.3 mph N2.1 kmh N 4.0 mph6.4 kmh 30.08 in1018.6 mb 0.00 in0.0 mm 0.00 in0.0 mm 0.00 in0.0 mm
03:20 PM 71.7°F22.1°C 26.0°F-3.3°C 18% 0.9 mph NE1.4 kmh NE 5.0 mph8.0 kmh 30.07 in1018.3 mb 0.00 in0.0 mm 0.00 in0.0 mm 0.00 in0.0 mm
03:30 PM 71.4°F21.9°C 27.0°F-2.8°C 19% 0.9 mph NE1.4 kmh NE 3.0 mph4.8 kmh 30.08 in1018.6 mb 0.00 in0.0 mm 0.00 in0.0 mm 0.00 in0.0 mm
03:40 PM 71.1°F21.7°C 25.0°F-3.9°C 18% 1.2 mph NNE1.9 kmh NNE 3.0 mph4.8 kmh 30.07 in1018.3 mb 0.00 in0.0 mm 0.00 in0.0 mm 0.00 in0.0 mm
03:50 PM 70.9°F21.6°C 27.0°F-2.8°C 19% 1.7 mph E2.7 kmh E 4.0 mph6.4 kmh 30.07 in1018.3 mb 0.00 in0.0 mm 0.00 in0.0 mm 0.00 in0.0 mm
04:00 PM 71.2°F21.8°C 25.0°F-3.9°C 18% 1.1 mph NE1.8 kmh NE 3.0 mph4.8 kmh 30.07 in1018.3 mb 0.00 in0.0 mm 0.00 in0.0 mm 0.00 in0.0 mm
04:10 PM 70.7°F21.5°C 25.0°F-3.9°C 18% 1.7 mph ENE2.7 kmh ENE 3.0 mph4.8 kmh 30.07 in1018.3 mb 0.00 in0.0 mm 0.00 in0.0 mm 0.00 in0.0 mm
04:20 PM 71.3°F21.8°C 27.0°F-2.8°C 19% 0.2 mph E0.3 kmh E 2.0 mph3.2 kmh 30.07 in1018.3 mb 0.00 in0.0 mm 0.00 in0.0 mm 0.00 in0.0 mm
04:30 PM 71.3°F21.8°C 28.0°F-2.2°C 20% 0.2 mph ENE0.3 kmh ENE 2.0 mph3.2 kmh 30.07 in1018.3 mb 0.00 in0.0 mm 0.00 in0.0 mm 0.00 in0.0 mm
04:40 PM 70.6°F21.4°C 30.0°F-1.1°C 22% 0.1 mph E0.2 kmh E 2.0 mph3.2 kmh 30.06 in1017.9 mb 0.00 in0.0 mm 0.00 in0.0 mm 0.00 in0.0 mm
04:50 PM 70.1°F21.2°C 28.0°F-2.2°C 21% 0.1 mph E0.2 kmh E 1.0 mph1.6 kmh 30.06 in1017.9 mb 0.00 in0.0 mm 0.00 in0.0 mm 0.00 in0.0 mm
05:00 PM 68.9°F20.5°C 29.0°F-1.7°C 23% Calm Calm 1.0 mph1.6 kmh 30.06 in1017.9 mb 0.00 in0.0 mm 0.00 in0.0 mm 0.00 in0.0 mm
05:10 PM 67.8°F19.9°C 29.0°F-1.7°C 23% Calm Calm 1.0 mph1.6 kmh 30.06 in1017.9 mb 0.00 in0.0 mm 0.00 in0.0 mm 0.00 in0.0 mm
05:20 PM 66.7°F19.3°C 30.0°F-1.1°C 25% Calm Calm 1.0 mph1.6 kmh 30.06 in1017.9 mb 0.00 in0.0 mm 0.00 in0.0 mm 0.00 in0.0 mm
05:30 PM 64.9°F18.3°C 28.0°F-2.2°C 25% Calm Calm -- 30.06 in1017.9 mb 0.00 in0.0 mm 0.00 in0.0 mm 0.00 in0.0 mm
05:40 PM 65.0°F18.3°C 29.0°F-1.7°C 26% Calm Calm 1.0 mph1.6 kmh 30.06 in1017.9 mb 0.00 in0.0 mm 0.00 in0.0 mm 0.00 in0.0 mm
05:50 PM 63.1°F17.3°C 33.0°F0.6°C 33% 0.1 mph SW0.2 kmh SW 2.0 mph3.2 kmh 30.07 in1018.3 mb 0.00 in0.0 mm 0.00 in0.0 mm 0.00 in0.0 mm
06:00 PM 62.0°F16.7°C 30.0°F-1.1°C 30% 0.1 mph SW0.2 kmh SW 1.0 mph1.6 kmh 30.07 in1018.3 mb 0.00 in0.0 mm 0.00 in0.0 mm 0.00 in0.0 mm
06:10 PM 61.7°F16.5°C 32.0°F0.0°C 33% 0.4 mph SW0.6 kmh SW 1.0 mph1.6 kmh 30.07 in1018.3 mb 0.00 in0.0 mm 0.00 in0.0 mm 0.00 in0.0 mm
06:20 PM 60.7°F15.9°C 33.0°F0.6°C 36% 0.1 mph SW0.2 kmh SW 1.0 mph1.6 kmh 30.07 in1018.3 mb 0.00 in0.0 mm 0.00 in0.0 mm 0.00 in0.0 mm
06:30 PM 59.5°F15.3°C 32.0°F0.0°C 35% 0.9 mph SW1.4 kmh SW 2.0 mph3.2 kmh 30.07 in1018.3 mb 0.00 in0.0 mm 0.00 in0.0 mm 0.00 in0.0 mm
06:40 PM 58.6°F14.8°C 32.0°F0.0°C 36% 0.3 mph WSW0.5 kmh WSW 1.0 mph1.6 kmh 30.07 in1018.3 mb 0.00 in0.0 mm 0.00 in0.0 mm 0.00 in0.0 mm
06:50 PM 57.9°F14.4°C 30.0°F-1.1°C 35% 0.9 mph WSW1.4 kmh WSW 1.0 mph1.6 kmh 30.07 in1018.3 mb 0.00 in0.0 mm 0.00 in0.0 mm 0.00 in0.0 mm
07:00 PM 57.7°F14.3°C 30.0°F-1.1°C 35% 0.4 mph WSW0.6 kmh WSW 1.0 mph1.6 kmh 30.07 in1018.3 mb 0.00 in0.0 mm 0.00 in0.0 mm 0.00 in0.0 mm
07:10 PM 56.9°F13.8°C 29.0°F-1.7°C 35% Calm Calm -- 30.07 in1018.3 mb 0.00 in0.0 mm 0.00 in0.0 mm 0.00 in0.0 mm
07:20 PM 56.1°F13.4°C 29.0°F-1.7°C 36% Calm Calm -- 30.07 in1018.3 mb 0.00 in0.0 mm 0.00 in0.0 mm 0.00 in0.0 mm
07:30 PM 55.6°F13.1°C 29.0°F-1.7°C 37% 0.4 mph SW0.6 kmh SW 1.0 mph1.6 kmh 30.07 in1018.3 mb 0.00 in0.0 mm 0.00 in0.0 mm 0.00 in0.0 mm
07:40 PM 55.6°F13.1°C 29.0°F-1.7°C 36% 0.9 mph SW1.4 kmh SW 2.0 mph3.2 kmh 30.07 in1018.3 mb 0.00 in0.0 mm 0.00 in0.0 mm 0.00 in0.0 mm
07:50 PM 55.3°F12.9°C 29.0°F-1.7°C 37% 1.0 mph SW1.6 kmh SW 1.0 mph1.6 kmh 30.07 in1018.3 mb 0.00 in0.0 mm 0.00 in0.0 mm 0.00 in0.0 mm
08:00 PM 55.3°F12.9°C 29.0°F-1.7°C 36% 0.9 mph SW1.4 kmh SW 1.0 mph1.6 kmh 30.07 in1018.3 mb 0.00 in0.0 mm 0.00 in0.0 mm 0.00 in0.0 mm
08:10 PM 55.0°F12.8°C 29.0°F-1.7°C 37% 0.9 mph SW1.4 kmh SW 1.0 mph1.6 kmh 30.07 in1018.3 mb 0.00 in0.0 mm 0.00 in0.0 mm 0.00 in0.0 mm
08:20 PM 54.6°F12.6°C 29.0°F-1.7°C 38% 1.0 mph SW1.6 kmh SW 1.0 mph1.6 kmh 30.07 in1018.3 mb 0.00 in0.0 mm 0.00 in0.0 mm 0.00 in0.0 mm
08:30 PM 54.2°F12.3°C 29.0°F-1.7°C 38% 1.0 mph SW1.6 kmh SW 2.0 mph3.2 kmh 30.07 in1018.3 mb 0.00 in0.0 mm 0.00 in0.0 mm 0.00 in0.0 mm
08:40 PM 54.0°F12.2°C 29.0°F-1.7°C 38% 0.8 mph SW1.3 kmh SW 1.0 mph1.6 kmh 30.08 in1018.6 mb 0.00 in0.0 mm 0.00 in0.0 mm 0.00 in0.0 mm
08:50 PM 54.0°F12.2°C 29.0°F-1.7°C 39% 1.0 mph WSW1.6 kmh WSW 2.0 mph3.2 kmh 30.08 in1018.6 mb 0.00 in0.0 mm 0.00 in0.0 mm 0.00 in0.0 mm
09:00 PM 54.1°F12.3°C 29.0°F-1.7°C 39% 1.0 mph WSW1.6 kmh WSW 2.0 mph3.2 kmh 30.08 in1018.6 mb 0.00 in0.0 mm 0.00 in0.0 mm 0.00 in0.0 mm
09:10 PM 54.0°F12.2°C 29.0°F-1.7°C 39% 1.0 mph SW1.6 kmh SW 2.0 mph3.2 kmh 30.08 in1018.6 mb 0.00 in0.0 mm 0.00 in0.0 mm 0.00 in0.0 mm
09:20 PM 53.9°F12.2°C 29.0°F-1.7°C 39% 1.0 mph WSW1.6 kmh WSW 2.0 mph3.2 kmh 30.08 in1018.6 mb 0.00 in0.0 mm 0.00 in0.0 mm 0.00 in0.0 mm
09:30 PM 53.6°F12.0°C 29.0°F-1.7°C 39% 0.9 mph WSW1.4 kmh WSW 2.0 mph3.2 kmh 30.09 in1019.0 mb 0.00 in0.0 mm 0.00 in0.0 mm 0.00 in0.0 mm
09:40 PM 53.1°F11.7°C 30.0°F-1.1°C 42% 0.4 mph WSW0.6 kmh WSW 1.0 mph1.6 kmh 30.09 in1019.0 mb 0.00 in0.0 mm 0.00 in0.0 mm 0.00 in0.0 mm
09:50 PM 52.6°F11.4°C 30.0°F-1.1°C 43% Calm Calm -- 30.09 in1019.0 mb 0.00 in0.0 mm 0.00 in0.0 mm 0.00 in0.0 mm
10:00 PM 52.5°F11.4°C 30.0°F-1.1°C 43% Calm Calm -- 30.09 in1019.0 mb 0.00 in0.0 mm 0.00 in0.0 mm 0.00 in0.0 mm
10:10 PM 52.5°F11.4°C 30.0°F-1.1°C 43% Calm Calm -- 30.09 in1019.0 mb 0.00 in0.0 mm 0.00 in0.0 mm 0.00 in0.0 mm
10:20 PM 52.1°F11.2°C 31.0°F-0.6°C 45% Calm Calm -- 30.09 in1019.0 mb 0.00 in0.0 mm 0.00 in0.0 mm 0.00 in0.0 mm
10:30 PM 51.3°F10.7°C 32.0°F0.0°C 48% Calm Calm -- 30.09 in1019.0 mb 0.00 in0.0 mm 0.00 in0.0 mm 0.00 in0.0 mm
10:40 PM 50.7°F10.4°C 32.0°F0.0°C 49% Calm Calm -- 30.09 in1019.0 mb 0.00 in0.0 mm 0.00 in0.0 mm 0.00 in0.0 mm
10:50 PM 50.2°F10.1°C 32.0°F0.0°C 49% Calm Calm -- 30.09 in1019.0 mb 0.00 in0.0 mm 0.00 in0.0 mm 0.00 in0.0 mm
11:00 PM 49.9°F9.9°C 32.0°F0.0°C 51% Calm Calm -- 30.10 in1019.3 mb 0.00 in0.0 mm 0.00 in0.0 mm 0.00 in0.0 mm
11:10 PM 49.5°F9.7°C 32.0°F0.0°C 52% Calm Calm -- 30.10 in1019.3 mb 0.00 in0.0 mm 0.00 in0.0 mm 0.00 in0.0 mm
11:20 PM 49.0°F9.4°C 32.0°F0.0°C 53% Calm Calm -- 30.10 in1019.3 mb 0.00 in0.0 mm 0.00 in0.0 mm 0.00 in0.0 mm
11:30 PM 48.8°F9.3°C 32.0°F0.0°C 52% Calm Calm -- 30.10 in1019.3 mb 0.00 in0.0 mm 0.00 in0.0 mm 0.00 in0.0 mm
11:40 PM 48.2°F9.0°C 32.0°F0.0°C 54% Calm Calm -- 30.10 in1019.3 mb 0.00 in0.0 mm 0.00 in0.0 mm 0.00 in0.0 mm
11:50 PM 47.6°F8.7°C 32.0°F0.0°C 55% Calm Calm -- 30.11 in1019.6 mb 0.00 in0.0 mm 0.00 in0.0 mm 0.00 in0.0 mm